sensor_id;sensor_type;location;lat;lon;timestamp;pressure;altitude;pressure_sealevel;temperature;humidity
78643;BME280;67954;47.618;17.606;2023-04-08T00:00:04;100403.97;;;6.08;84.00
78643;BME280;67954;47.618;17.606;2023-04-08T00:00:36;100403.03;;;6.09;84.34
78643;BME280;67954;47.618;17.606;2023-04-08T00:01:07;100392.47;;;6.07;84.50
78643;BME280;67954;47.618;17.606;2023-04-08T00:01:39;100393.53;;;6.05;84.02
78643;BME280;67954;47.618;17.606;2023-04-08T00:02:09;100397.16;;;6.04;84.45
78643;BME280;67954;47.618;17.606;2023-04-08T00:02:40;100398.66;;;6.08;84.57
78643;BME280;67954;47.618;17.606;2023-04-08T00:03:12;100403.03;;;6.09;84.33
78643;BME280;67954;47.618;17.606;2023-04-08T00:03:43;100403.13;;;6.07;84.03
78643;BME280;67954;47.618;17.606;2023-04-08T00:04:13;100395.88;;;6.09;83.95
78643;BME280;67954;47.618;17.606;2023-04-08T00:04:45;100392.34;;;6.09;84.34
78643;BME280;67954;47.618;17.606;2023-04-08T00:05:16;100400.34;;;6.09;83.87
78643;BME280;67954;47.618;17.606;2023-04-08T00:05:47;100399.13;;;6.13;84.20
78643;BME280;67954;47.618;17.606;2023-04-08T00:06:20;100396.56;;;6.12;83.78
78643;BME280;67954;47.618;17.606;2023-04-08T00:06:51;100403.63;;;6.13;84.06
78643;BME280;67954;47.618;17.606;2023-04-08T00:07:21;100394.06;;;6.10;84.12
78643;BME280;67954;47.618;17.606;2023-04-08T00:07:53;100392.22;;;6.10;83.89
78643;BME280;67954;47.618;17.606;2023-04-08T00:08:24;100397.53;;;6.10;83.54
78643;BME280;67954;47.618;17.606;2023-04-08T00:08:55;100387.25;;;6.06;83.29
78643;BME280;67954;47.618;17.606;2023-04-08T00:09:26;100403.13;;;6.07;84.00
78643;BME280;67954;47.618;17.606;2023-04-08T00:09:57;100397.81;;;6.07;83.35
78643;BME280;67954;47.618;17.606;2023-04-08T00:10:28;100388.22;;;6.05;83.65
78643;BME280;67954;47.618;17.606;2023-04-08T00:11:00;100391.22;;;6.00;83.44
78643;BME280;67954;47.618;17.606;2023-04-08T00:11:31;100391.09;;;6.02;83.75
78643;BME280;67954;47.618;17.606;2023-04-08T00:12:01;100394.84;;;5.99;83.83
78643;BME280;67954;47.618;17.606;2023-04-08T00:12:33;100390.72;;;5.95;83.89
78643;BME280;67954;47.618;17.606;2023-04-08T00:13:04;100397.41;;;6.01;83.82
78643;BME280;67954;47.618;17.606;2023-04-08T00:13:35;100396.31;;;6.03;83.45
78643;BME280;67954;47.618;17.606;2023-04-08T00:14:07;100392.91;;;6.01;83.55
78643;BME280;67954;47.618;17.606;2023-04-08T00:14:37;100396.44;;;6.02;83.40
78643;BME280;67954;47.618;17.606;2023-04-08T00:15:10;100397.28;;;6.02;83.41
78643;BME280;67954;47.618;17.606;2023-04-08T00:15:41;100394.63;;;6.02;83.80
78643;BME280;67954;47.618;17.606;2023-04-08T00:16:12;100396.31;;;6.03;83.21
78643;BME280;67954;47.618;17.606;2023-04-08T00:16:43;100394.28;;;6.07;82.65
78643;BME280;67954;47.618;17.606;2023-04-08T00:17:14;100394.50;;;6.04;82.87
78643;BME280;67954;47.618;17.606;2023-04-08T00:17:46;100389.50;;;5.99;82.88
78643;BME280;67954;47.618;17.606;2023-04-08T00:18:16;100386.84;;;5.99;82.94
78643;BME280;67954;47.618;17.606;2023-04-08T00:18:47;100394.84;;;5.99;83.44
78643;BME280;67954;47.618;17.606;2023-04-08T00:19:19;100392.91;;;6.01;82.78
78643;BME280;67954;47.618;17.606;2023-04-08T00:19:50;100389.63;;;5.98;83.33
78643;BME280;67954;47.618;17.606;2023-04-08T00:20:22;100397.63;;;5.98;83.25
78643;BME280;67954;47.618;17.606;2023-04-08T00:20:54;100398.72;;;5.95;83.22
78643;BME280;67954;47.618;17.606;2023-04-08T00:21:27;100394.34;;;5.94;83.18
78643;BME280;67954;47.618;17.606;2023-04-08T00:22:01;100389.03;;;5.94;83.18
78643;BME280;67954;47.618;17.606;2023-04-08T00:22:31;100396.75;;;5.97;82.79
78643;BME280;67954;47.618;17.606;2023-04-08T00:23:02;100398.47;;;5.98;83.32
78643;BME280;67954;47.618;17.606;2023-04-08T00:23:34;100389.03;;;5.94;82.99
78643;BME280;67954;47.618;17.606;2023-04-08T00:24:05;100395.94;;;5.97;82.84
78643;BME280;67954;47.618;17.606;2023-04-08T00:24:36;100392.53;;;5.95;83.13
78643;BME280;67954;47.618;17.606;2023-04-08T00:25:07;100396.38;;;5.91;83.17
78643;BME280;67954;47.618;17.606;2023-04-08T00:25:39;100389.47;;;5.88;83.14
78643;BME280;67954;47.618;17.606;2023-04-08T00:26:10;100400.03;;;5.90;83.27
78643;BME280;67954;47.618;17.606;2023-04-08T00:26:41;100387.25;;;5.82;83.30
78643;BME280;67954;47.618;17.606;2023-04-08T00:27:13;100389.78;;;5.84;83.38
78643;BME280;67954;47.618;17.606;2023-04-08T00:27:43;100383.59;;;5.83;83.20
78643;BME280;67954;47.618;17.606;2023-04-08T00:28:14;100388.19;;;5.81;83.29
78643;BME280;67954;47.618;17.606;2023-04-08T00:28:45;100386.97;;;5.85;83.19
78643;BME280;67954;47.618;17.606;2023-04-08T00:29:17;100394.28;;;5.83;83.50
78643;BME280;67954;47.618;17.606;2023-04-08T00:29:48;100385.41;;;5.83;83.11
78643;BME280;67954;47.618;17.606;2023-04-08T00:30:18;100390.75;;;5.83;83.16
78643;BME280;67954;47.618;17.606;2023-04-08T00:30:51;100394.50;;;5.80;83.09
78643;BME280;67954;47.618;17.606;2023-04-08T00:31:22;100391.81;;;5.80;83.55
78643;BME280;67954;47.618;17.606;2023-04-08T00:31:53;100384.78;;;5.79;83.07
78643;BME280;67954;47.618;17.606;2023-04-08T00:32:26;100389.06;;;5.82;82.74
78643;BME280;67954;47.618;17.606;2023-04-08T00:32:56;100391.72;;;5.82;82.90
78643;BME280;67954;47.618;17.606;2023-04-08T00:33:27;100390.00;;;5.81;82.74
78643;BME280;67954;47.618;17.606;2023-04-08T00:33:59;100396.75;;;5.73;83.09
78643;BME280;67954;47.618;17.606;2023-04-08T00:34:30;100392.28;;;5.74;82.96
78643;BME280;67954;47.618;17.606;2023-04-08T00:35:00;100399.41;;;5.73;83.50
78643;BME280;67954;47.618;17.606;2023-04-08T00:35:33;100391.78;;;5.69;83.54
78643;BME280;67954;47.618;17.606;2023-04-08T00:36:04;100396.84;;;5.72;83.32
78643;BME280;67954;47.618;17.606;2023-04-08T00:36:36;100391.53;;;5.72;83.34
78643;BME280;67954;47.618;17.606;2023-04-08T00:37:08;100404.16;;;5.70;83.11
78643;BME280;67954;47.618;17.606;2023-04-08T00:37:39;100389.97;;;5.69;83.65
78643;BME280;67954;47.618;17.606;2023-04-08T00:38:10;100394.34;;;5.70;83.32
78643;BME280;67954;47.618;17.606;2023-04-08T00:38:42;100401.59;;;5.68;83.85
78643;BME280;67954;47.618;17.606;2023-04-08T00:39:13;100395.19;;;5.71;83.13
78643;BME280;67954;47.618;17.606;2023-04-08T00:39:44;100393.34;;;5.71;83.41
78643;BME280;67954;47.618;17.606;2023-04-08T00:40:16;100395.19;;;5.71;83.57
78643;BME280;67954;47.618;17.606;2023-04-08T00:40:47;100395.91;;;5.73;83.65
78643;BME280;67954;47.618;17.606;2023-04-08T00:41:17;100393.34;;;5.71;83.12
78643;BME280;67954;47.618;17.606;2023-04-08T00:41:49;100390.56;;;5.73;83.48
78643;BME280;67954;47.618;17.606;2023-04-08T00:42:20;100392.38;;;5.72;83.72
78643;BME280;67954;47.618;17.606;2023-04-08T00:42:51;100390.06;;;5.68;83.61
78643;BME280;67954;47.618;17.606;2023-04-08T00:43:22;100397.09;;;5.69;83.20
78643;BME280;67954;47.618;17.606;2023-04-08T00:43:53;100392.75;;;5.68;83.35
78643;BME280;67954;47.618;17.606;2023-04-08T00:44:24;100390.06;;;5.68;83.77
78643;BME280;67954;47.618;17.606;2023-04-08T00:44:56;100399.03;;;5.67;83.76
78643;BME280;67954;47.618;17.606;2023-04-08T00:45:27;100390.28;;;5.65;83.69
78643;BME280;67954;47.618;17.606;2023-04-08T00:45:58;100398.19;;;5.66;84.03
78643;BME280;67954;47.618;17.606;2023-04-08T00:46:30;100396.25;;;5.68;83.55
78643;BME280;67954;47.618;17.606;2023-04-08T00:47:02;100396.47;;;5.65;83.09
78643;BME280;67954;47.618;17.606;2023-04-08T00:47:34;100396.38;;;5.67;83.38
78643;BME280;67954;47.618;17.606;2023-04-08T00:48:06;100398.28;;;5.65;83.38
78643;BME280;67954;47.618;17.606;2023-04-08T00:48:37;100397.31;;;5.66;83.40
78643;BME280;67954;47.618;17.606;2023-04-08T00:49:08;100395.72;;;5.63;83.80
78643;BME280;67954;47.618;17.606;2023-04-08T00:49:41;100395.00;;;5.61;83.49
78643;BME280;67954;47.618;17.606;2023-04-08T00:50:12;100402.88;;;5.63;83.63
78643;BME280;67954;47.618;17.606;2023-04-08T00:50:43;100396.69;;;5.62;83.86
78643;BME280;67954;47.618;17.606;2023-04-08T00:51:16;100399.47;;;5.61;83.66
78643;BME280;67954;47.618;17.606;2023-04-08T00:51:48;100397.53;;;5.63;83.17
78643;BME280;67954;47.618;17.606;2023-04-08T00:52:20;100394.78;;;5.64;83.12
78643;BME280;67954;47.618;17.606;2023-04-08T00:52:51;100397.66;;;5.61;83.63
78643;BME280;67954;47.618;17.606;2023-04-08T00:53:22;100403.72;;;5.63;83.40
78643;BME280;67954;47.618;17.606;2023-04-08T00:53:53;100405.53;;;5.63;83.81
78643;BME280;67954;47.618;17.606;2023-04-08T00:54:25;100405.03;;;5.58;83.65
78643;BME280;67954;47.618;17.606;2023-04-08T00:54:56;100399.72;;;5.58;83.88
78643;BME280;67954;47.618;17.606;2023-04-08T00:55:27;100404.69;;;5.62;83.52
78643;BME280;67954;47.618;17.606;2023-04-08T00:55:58;100402.75;;;5.64;83.78
78643;BME280;67954;47.618;17.606;2023-04-08T00:56:31;100407.13;;;5.65;83.86
78643;BME280;67954;47.618;17.606;2023-04-08T00:57:02;100411.72;;;5.63;83.98
78643;BME280;67954;47.618;17.606;2023-04-08T00:57:34;100404.47;;;5.65;83.71
78643;BME280;67954;47.618;17.606;2023-04-08T00:58:07;100405.66;;;5.61;84.03
78643;BME280;67954;47.618;17.606;2023-04-08T00:58:39;100408.66;;;5.57;83.60
78643;BME280;67954;47.618;17.606;2023-04-08T00:59:10;100411.13;;;5.47;83.04
78643;BME280;67954;47.618;17.606;2023-04-08T00:59:42;100407.88;;;5.44;83.63
78643;BME280;67954;47.618;17.606;2023-04-08T01:00:14;100411.50;;;5.43;83.81
78643;BME280;67954;47.618;17.606;2023-04-08T01:00:52;100406.25;;;5.41;83.33
78643;BME280;67954;47.618;17.606;2023-04-08T01:01:33;100410.97;;;5.37;83.58
78643;BME280;67954;47.618;17.606;2023-04-08T01:02:14;100412.44;;;5.42;83.78
78643;BME280;67954;47.618;17.606;2023-04-08T01:02:56;100414.56;;;5.36;84.05
78643;BME280;67954;47.618;17.606;2023-04-08T01:03:40;100407.06;;;5.18;84.33
78643;BME280;67954;47.618;17.606;2023-04-08T01:04:23;100414.75;;;5.10;84.39
78643;BME280;67954;47.618;17.606;2023-04-08T01:05:01;100416.03;;;5.04;85.31
78643;BME280;67954;47.618;17.606;2023-04-08T01:05:41;100418.47;;;5.07;85.00
78643;BME280;67954;47.618;17.606;2023-04-08T01:06:22;100414.66;;;4.98;85.90
78643;BME280;67954;47.618;17.606;2023-04-08T01:07:02;100409.63;;;5.07;84.87
78643;BME280;67954;47.618;17.606;2023-04-08T01:07:38;100408.34;;;5.12;84.28
78643;BME280;67954;47.618;17.606;2023-04-08T01:08:11;100408.66;;;5.20;84.07
78643;BME280;67954;47.618;17.606;2023-04-08T01:08:42;100415.47;;;5.24;84.18
78643;BME280;67954;47.618;17.606;2023-04-08T01:09:17;100412.59;;;5.27;84.55
78643;BME280;67954;47.618;17.606;2023-04-08T01:09:53;100410.13;;;5.24;85.04
78643;BME280;67954;47.618;17.606;2023-04-08T01:10:28;100414.63;;;5.24;85.61
78643;BME280;67954;47.618;17.606;2023-04-08T01:11:02;100406.31;;;5.28;85.53
78643;BME280;67954;47.618;17.606;2023-04-08T01:11:34;100406.19;;;5.30;84.86
78643;BME280;67954;47.618;17.606;2023-04-08T01:12:08;100408.31;;;5.25;84.84
78643;BME280;67954;47.618;17.606;2023-04-08T01:12:49;100411.63;;;5.28;84.84
78643;BME280;67954;47.618;17.606;2023-04-08T01:13:22;100412.06;;;5.22;85.40
78643;BME280;67954;47.618;17.606;2023-04-08T01:13:57;100408.31;;;5.25;85.45
78643;BME280;67954;47.618;17.606;2023-04-08T01:14:31;100412.47;;;5.29;85.53
78643;BME280;67954;47.618;17.606;2023-04-08T01:15:06;100413.84;;;5.34;85.28
78643;BME280;67954;47.618;17.606;2023-04-08T01:15:39;100410.22;;;5.35;84.85
78643;BME280;67954;47.618;17.606;2023-04-08T01:16:14;100403.94;;;5.36;84.78
78643;BME280;67954;47.618;17.606;2023-04-08T01:16:47;100404.44;;;5.42;85.27
78643;BME280;67954;47.618;17.606;2023-04-08T01:17:21;100409.69;;;5.43;85.09
78643;BME280;67954;47.618;17.606;2023-04-08T01:17:54;100413.09;;;5.45;84.97
78643;BME280;67954;47.618;17.606;2023-04-08T01:18:25;100410.63;;;5.42;85.31
78643;BME280;67954;47.618;17.606;2023-04-08T01:18:58;100412.56;;;5.40;85.13
78643;BME280;67954;47.618;17.606;2023-04-08T01:19:33;100409.56;;;5.45;85.16
78643;BME280;67954;47.618;17.606;2023-04-08T01:20:06;100405.91;;;5.46;85.03
78643;BME280;67954;47.618;17.606;2023-04-08T01:20:41;100409.56;;;5.45;84.85
78643;BME280;67954;47.618;17.606;2023-04-08T01:21:13;100410.28;;;5.47;84.77
78643;BME280;67954;47.618;17.606;2023-04-08T01:21:46;100412.94;;;5.47;85.11
78643;BME280;67954;47.618;17.606;2023-04-08T01:22:27;100409.09;;;5.51;85.53
78643;BME280;67954;47.618;17.606;2023-04-08T01:23:09;100409.09;;;5.51;84.95
78643;BME280;67954;47.618;17.606;2023-04-08T01:23:53;100412.41;;;5.54;84.76
78643;BME280;67954;47.618;17.606;2023-04-08T01:24:30;100408.78;;;5.55;84.96
78643;BME280;67954;47.618;17.606;2023-04-08T01:25:06;100411.44;;;5.55;84.47
78643;BME280;67954;47.618;17.606;2023-04-08T01:25:38;100400.53;;;5.58;84.59
78643;BME280;67954;47.618;17.606;2023-04-08T01:26:12;100406.22;;;5.54;84.82
78643;BME280;67954;47.618;17.606;2023-04-08T01:26:51;100415.81;;;5.56;84.25
78643;BME280;67954;47.618;17.606;2023-04-08T01:27:22;100401.38;;;5.59;84.10
78643;BME280;67954;47.618;17.606;2023-04-08T01:27:55;100412.19;;;5.57;84.53
78643;BME280;67954;47.618;17.606;2023-04-08T01:28:29;100401.63;;;5.56;84.19
78643;BME280;67954;47.618;17.606;2023-04-08T01:29:02;100409.22;;;5.49;84.07
78643;BME280;67954;47.618;17.606;2023-04-08T01:29:35;100413.69;;;5.49;84.24
78643;BME280;67954;47.618;17.606;2023-04-08T01:30:07;100408.34;;;5.49;84.64
78643;BME280;67954;47.618;17.606;2023-04-08T01:30:40;100408.47;;;5.47;84.73
78643;BME280;67954;47.618;17.606;2023-04-08T01:31:13;100406.53;;;5.49;85.07
78643;BME280;67954;47.618;17.606;2023-04-08T01:31:46;100407.41;;;5.50;85.14
78643;BME280;67954;47.618;17.606;2023-04-08T01:32:18;100409.97;;;5.51;85.25
78643;BME280;67954;47.618;17.606;2023-04-08T01:32:53;100413.38;;;5.53;84.87
78643;BME280;67954;47.618;17.606;2023-04-08T01:33:26;100412.28;;;5.56;85.12
78643;BME280;67954;47.618;17.606;2023-04-08T01:33:59;100411.34;;;5.57;85.01
78643;BME280;67954;47.618;17.606;2023-04-08T01:34:33;100418.38;;;5.58;84.67
78643;BME280;67954;47.618;17.606;2023-04-08T01:35:07;100419.44;;;5.55;84.65
78643;BME280;67954;47.618;17.606;2023-04-08T01:35:39;100411.34;;;5.57;84.82
78643;BME280;67954;47.618;17.606;2023-04-08T01:36:11;100412.50;;;5.53;84.65
78643;BME280;67954;47.618;17.606;2023-04-08T01:36:43;100414.44;;;5.51;84.82
78643;BME280;67954;47.618;17.606;2023-04-08T01:37:15;100414.31;;;5.52;85.04
78643;BME280;67954;47.618;17.606;2023-04-08T01:37:49;100418.81;;;5.52;85.03
78643;BME280;67954;47.618;17.606;2023-04-08T01:38:22;100411.56;;;5.54;84.73
78643;BME280;67954;47.618;17.606;2023-04-08T01:38:55;100414.31;;;5.52;84.88
78643;BME280;67954;47.618;17.606;2023-04-08T01:39:27;100413.59;;;5.50;84.77
78643;BME280;67954;47.618;17.606;2023-04-08T01:40:00;100408.25;;;5.50;84.90
78643;BME280;67954;47.618;17.606;2023-04-08T01:40:34;100416.66;;;5.57;84.60
78643;BME280;67954;47.618;17.606;2023-04-08T01:41:08;100409.53;;;5.57;84.44
78643;BME280;67954;47.618;17.606;2023-04-08T01:41:42;100411.94;;;5.60;84.07
78643;BME280;67954;47.618;17.606;2023-04-08T01:42:14;100409.91;;;5.64;84.43
78643;BME280;67954;47.618;17.606;2023-04-08T01:42:48;100409.06;;;5.63;84.31
78643;BME280;67954;47.618;17.606;2023-04-08T01:43:20;100406.38;;;5.63;84.16
78643;BME280;67954;47.618;17.606;2023-04-08T01:43:52;100416.72;;;5.68;84.29
78643;BME280;67954;47.618;17.606;2023-04-08T01:44:26;100416.84;;;5.66;84.28
78643;BME280;67954;47.618;17.606;2023-04-08T01:44:58;100419.41;;;5.68;84.53
78643;BME280;67954;47.618;17.606;2023-04-08T01:45:29;100409.34;;;5.71;83.61
78643;BME280;67954;47.618;17.606;2023-04-08T01:46:01;100413.69;;;5.72;83.89
78643;BME280;67954;47.618;17.606;2023-04-08T01:46:33;100409.22;;;5.73;83.88
78643;BME280;67954;47.618;17.606;2023-04-08T01:47:05;100411.88;;;5.73;83.40
78643;BME280;67954;47.618;17.606;2023-04-08T01:47:38;100411.88;;;5.73;83.45
78643;BME280;67954;47.618;17.606;2023-04-08T01:48:11;100407.53;;;5.72;83.73
78643;BME280;67954;47.618;17.606;2023-04-08T01:48:43;100414.66;;;5.71;83.98
78643;BME280;67954;47.618;17.606;2023-04-08T01:49:17;100405.72;;;5.72;84.12
78643;BME280;67954;47.618;17.606;2023-04-08T01:49:49;100411.03;;;5.72;84.37
78643;BME280;67954;47.618;17.606;2023-04-08T01:50:21;100408.25;;;5.74;84.04
78643;BME280;67954;47.618;17.606;2023-04-08T01:50:54;100410.72;;;5.77;84.30
78643;BME280;67954;47.618;17.606;2023-04-08T01:51:27;100408.78;;;5.79;83.91
78643;BME280;67954;47.618;17.606;2023-04-08T01:51:59;100415.06;;;5.78;83.46
78643;BME280;67954;47.618;17.606;2023-04-08T01:52:34;100400.25;;;5.74;83.45
78643;BME280;67954;47.618;17.606;2023-04-08T01:53:08;100408.78;;;5.79;83.77
78643;BME280;67954;47.618;17.606;2023-04-08T01:53:39;100408.16;;;5.75;83.86
78643;BME280;67954;47.618;17.606;2023-04-08T01:54:13;100408.03;;;5.77;83.93
78643;BME280;67954;47.618;17.606;2023-04-08T01:54:44;100410.72;;;5.77;84.41
78643;BME280;67954;47.618;17.606;2023-04-08T01:55:16;100407.09;;;5.78;84.53
78643;BME280;67954;47.618;17.606;2023-04-08T01:55:51;100409.22;;;5.73;84.56
78643;BME280;67954;47.618;17.606;2023-04-08T01:56:28;100405.09;;;5.69;84.59
78643;BME280;67954;47.618;17.606;2023-04-08T01:57:01;100406.50;;;5.62;84.97
78643;BME280;67954;47.618;17.606;2023-04-08T01:57:37;100411.72;;;5.63;84.80
78643;BME280;67954;47.618;17.606;2023-04-08T01:58:11;100405.53;;;5.63;84.81
78643;BME280;67954;47.618;17.606;2023-04-08T01:58:47;100411.63;;;5.65;84.77
78643;BME280;67954;47.618;17.606;2023-04-08T01:59:23;100407.88;;;5.67;84.87
78643;BME280;67954;47.618;17.606;2023-04-08T02:00:01;100414.16;;;5.66;84.65
78643;BME280;67954;47.618;17.606;2023-04-08T02:00:33;100406.28;;;5.65;84.30
78643;BME280;67954;47.618;17.606;2023-04-08T02:01:10;100413.31;;;5.66;84.21
78643;BME280;67954;47.618;17.606;2023-04-08T02:01:43;100411.41;;;5.68;84.14
78643;BME280;67954;47.618;17.606;2023-04-08T02:02:18;100410.53;;;5.67;84.23
78643;BME280;67954;47.618;17.606;2023-04-08T02:02:50;100410.44;;;5.69;84.16
78643;BME280;67954;47.618;17.606;2023-04-08T02:03:24;100412.84;;;5.72;83.92
78643;BME280;67954;47.618;17.606;2023-04-08T02:03:58;100407.53;;;5.72;83.91
78643;BME280;67954;47.618;17.606;2023-04-08T02:04:29;100411.03;;;5.72;84.64
78643;BME280;67954;47.618;17.606;2023-04-08T02:05:01;100404.75;;;5.73;84.02
78643;BME280;67954;47.618;17.606;2023-04-08T02:05:33;100407.31;;;5.75;84.40
78643;BME280;67954;47.618;17.606;2023-04-08T02:06:04;100407.31;;;5.75;84.16
78643;BME280;67954;47.618;17.606;2023-04-08T02:06:36;100405.59;;;5.74;84.08
78643;BME280;67954;47.618;17.606;2023-04-08T02:07:07;100409.97;;;5.75;84.23
78643;BME280;67954;47.618;17.606;2023-04-08T02:07:39;100417.75;;;5.78;84.52
78643;BME280;67954;47.618;17.606;2023-04-08T02:08:11;100413.59;;;5.74;84.68
78643;BME280;67954;47.618;17.606;2023-04-08T02:08:41;100403.88;;;5.73;84.44
78643;BME280;67954;47.618;17.606;2023-04-08T02:09:12;100407.31;;;5.75;84.87
78643;BME280;67954;47.618;17.606;2023-04-08T02:09:44;100409.97;;;5.75;84.82
78643;BME280;67954;47.618;17.606;2023-04-08T02:10:15;100402.34;;;5.70;84.26
78643;BME280;67954;47.618;17.606;2023-04-08T02:10:46;100411.88;;;5.73;84.67
78643;BME280;67954;47.618;17.606;2023-04-08T02:11:17;100409.97;;;5.75;84.13
78643;BME280;67954;47.618;17.606;2023-04-08T02:11:48;100414.44;;;5.74;84.02
78643;BME280;67954;47.618;17.606;2023-04-08T02:12:21;100413.47;;;5.75;83.23
78643;BME280;67954;47.618;17.606;2023-04-08T02:12:55;100406.44;;;5.74;83.48
78643;BME280;67954;47.618;17.606;2023-04-08T02:13:26;100411.28;;;5.69;84.02
78643;BME280;67954;47.618;17.606;2023-04-08T02:13:58;100409.69;;;5.67;84.21
78643;BME280;67954;47.618;17.606;2023-04-08T02:14:30;100415.88;;;5.67;83.74
78643;BME280;67954;47.618;17.606;2023-04-08T02:15:01;100410.66;;;5.66;83.52
78643;BME280;67954;47.618;17.606;2023-04-08T02:15:35;100409.91;;;5.64;84.04
78643;BME280;67954;47.618;17.606;2023-04-08T02:16:15;100411.84;;;5.62;84.10
78643;BME280;67954;47.618;17.606;2023-04-08T02:16:50;100411.09;;;5.60;83.96
78643;BME280;67954;47.618;17.606;2023-04-08T02:17:29;100409.28;;;5.60;84.08
78643;BME280;67954;47.618;17.606;2023-04-08T02:18:10;100411.84;;;5.62;84.40
78643;BME280;67954;47.618;17.606;2023-04-08T02:18:46;100411.72;;;5.63;84.13
78643;BME280;67954;47.618;17.606;2023-04-08T02:19:26;100410.88;;;5.63;84.25
78643;BME280;67954;47.618;17.606;2023-04-08T02:20:07;100416.53;;;5.58;84.93
78643;BME280;67954;47.618;17.606;2023-04-08T02:20:43;100416.31;;;5.61;84.75
78643;BME280;67954;47.618;17.606;2023-04-08T02:21:18;100411.09;;;5.60;85.07
78643;BME280;67954;47.618;17.606;2023-04-08T02:21:58;100399.81;;;5.56;84.63
78643;BME280;67954;47.618;17.606;2023-04-08T02:22:37;100407.56;;;5.59;84.91
78643;BME280;67954;47.618;17.606;2023-04-08T02:23:13;100403.09;;;5.60;84.72
78643;BME280;67954;47.618;17.606;2023-04-08T02:23:48;100405.03;;;5.58;85.02
78643;BME280;67954;47.618;17.606;2023-04-08T02:24:21;100405.16;;;5.56;84.43
78643;BME280;67954;47.618;17.606;2023-04-08T02:24:52;100409.63;;;5.56;84.91
78643;BME280;67954;47.618;17.606;2023-04-08T02:25:24;100404.19;;;5.57;84.73
78643;BME280;67954;47.618;17.606;2023-04-08T02:25:55;100399.34;;;5.62;85.15
78643;BME280;67954;47.618;17.606;2023-04-08T02:26:27;100402.97;;;5.61;84.39
78643;BME280;67954;47.618;17.606;2023-04-08T02:26:59;100400.88;;;5.54;84.94
78643;BME280;67954;47.618;17.606;2023-04-08T02:27:35;100404.41;;;5.54;84.61
78643;BME280;67954;47.618;17.606;2023-04-08T02:28:09;100406.97;;;5.56;84.85
78643;BME280;67954;47.618;17.606;2023-04-08T02:28:41;100407.06;;;5.54;85.22
78643;BME280;67954;47.618;17.606;2023-04-08T02:29:14;100408.78;;;5.55;84.99
78643;BME280;67954;47.618;17.606;2023-04-08T02:29:48;100398.00;;;5.57;85.12
78643;BME280;67954;47.618;17.606;2023-04-08T02:30:21;100406.72;;;5.59;84.58
78643;BME280;67954;47.618;17.606;2023-04-08T02:30:53;100404.91;;;5.59;85.08
78643;BME280;67954;47.618;17.606;2023-04-08T02:31:26;100414.50;;;5.62;84.42
78643;BME280;67954;47.618;17.606;2023-04-08T02:31:58;100409.91;;;5.64;84.56
78643;BME280;67954;47.618;17.606;2023-04-08T02:32:32;100405.31;;;5.66;84.43
78643;BME280;67954;47.618;17.606;2023-04-08T02:33:05;100412.34;;;5.67;84.66
78643;BME280;67954;47.618;17.606;2023-04-08T02:33:37;100406.06;;;5.68;84.46
78643;BME280;67954;47.618;17.606;2023-04-08T02:34:09;100409.69;;;5.67;84.81
78643;BME280;67954;47.618;17.606;2023-04-08T02:34:42;100405.66;;;5.61;84.72
78643;BME280;67954;47.618;17.606;2023-04-08T02:35:14;100410.13;;;5.61;84.80
78643;BME280;67954;47.618;17.606;2023-04-08T02:35:48;100405.75;;;5.60;84.28
78643;BME280;67954;47.618;17.606;2023-04-08T02:36:21;100404.69;;;5.62;84.18
78643;BME280;67954;47.618;17.606;2023-04-08T02:36:52;100412.47;;;5.65;84.31
78643;BME280;67954;47.618;17.606;2023-04-08T02:37:24;100407.03;;;5.67;83.85
78643;BME280;67954;47.618;17.606;2023-04-08T02:37:55;100410.66;;;5.66;84.42
78643;BME280;67954;47.618;17.606;2023-04-08T02:38:26;100414.81;;;5.70;83.74
78643;BME280;67954;47.618;17.606;2023-04-08T02:39:00;100401.69;;;5.67;83.89
78643;BME280;67954;47.618;17.606;2023-04-08T02:39:31;100405.84;;;5.71;83.84
78643;BME280;67954;47.618;17.606;2023-04-08T02:40:03;100411.03;;;5.72;83.04
78643;BME280;67954;47.618;17.606;2023-04-08T02:40:35;100408.25;;;5.74;83.63
78643;BME280;67954;47.618;17.606;2023-04-08T02:41:06;100409.97;;;5.75;83.74
78643;BME280;67954;47.618;17.606;2023-04-08T02:41:37;100411.03;;;5.72;84.08
78643;BME280;67954;47.618;17.606;2023-04-08T02:42:09;100410.19;;;5.72;84.25
78643;BME280;67954;47.618;17.606;2023-04-08T02:42:41;100413.59;;;5.74;83.58
78643;BME280;67954;47.618;17.606;2023-04-08T02:43:12;100405.09;;;5.69;84.01
78643;BME280;67954;47.618;17.606;2023-04-08T02:43:44;100422.66;;;5.71;83.97
78643;BME280;67954;47.618;17.606;2023-04-08T02:44:17;100415.78;;;5.69;84.08
78643;BME280;67954;47.618;17.606;2023-04-08T02:44:48;100420.00;;;5.71;83.84
78643;BME280;67954;47.618;17.606;2023-04-08T02:45:20;100411.41;;;5.68;84.08
78643;BME280;67954;47.618;17.606;2023-04-08T02:45:51;100416.72;;;5.68;84.13
78643;BME280;67954;47.618;17.606;2023-04-08T02:46:22;100416.72;;;5.68;84.13
78643;BME280;67954;47.618;17.606;2023-04-08T02:46:54;100420.25;;;5.68;84.16
78643;BME280;67954;47.618;17.606;2023-04-08T02:47:25;100416.63;;;5.69;84.23
78643;BME280;67954;47.618;17.606;2023-04-08T02:47:56;100414.16;;;5.66;83.99
78643;BME280;67954;47.618;17.606;2023-04-08T02:48:29;100412.47;;;5.65;84.06
78643;BME280;67954;47.618;17.606;2023-04-08T02:49:00;100420.34;;;5.67;84.20
78643;BME280;67954;47.618;17.606;2023-04-08T02:49:31;100412.34;;;5.67;84.40
78643;BME280;67954;47.618;17.606;2023-04-08T02:50:02;100417.59;;;5.68;84.20
78643;BME280;67954;47.618;17.606;2023-04-08T02:50:34;100423.75;;;5.69;84.14
78643;BME280;67954;47.618;17.606;2023-04-08T02:51:05;100413.31;;;5.66;83.98
78643;BME280;67954;47.618;17.606;2023-04-08T02:51:36;100418.66;;;5.66;84.65